sensor_id;sensor_type;location;lat;lon;timestamp;P1;durP1;ratioP1;P2;durP2;ratioP2
23432;SDS011;41331;45.412;10.992;2022-11-11T00:01:42;23.77;;;15.27;;
23432;SDS011;41331;45.412;10.992;2022-11-11T00:04:28;25.27;;;14.70;;
23432;SDS011;41331;45.412;10.992;2022-11-11T00:07:14;21.02;;;14.35;;
23432;SDS011;41331;45.412;10.992;2022-11-11T00:10:00;23.55;;;15.35;;
23432;SDS011;41331;45.412;10.992;2022-11-11T00:12:46;20.13;;;14.00;;
23432;SDS011;41331;45.412;10.992;2022-11-11T00:15:35;19.10;;;13.55;;
23432;SDS011;41331;45.412;10.992;2022-11-11T00:18:21;17.80;;;12.57;;
23432;SDS011;41331;45.412;10.992;2022-11-11T00:21:26;22.15;;;11.52;;
23432;SDS011;41331;45.412;10.992;2022-11-11T00:24:31;19.73;;;11.88;;
23432;SDS011;41331;45.412;10.992;2022-11-11T00:27:37;17.27;;;11.15;;
23432;SDS011;41331;45.412;10.992;2022-11-11T00:30:23;17.45;;;11.27;;
23432;SDS011;41331;45.412;10.992;2022-11-11T00:33:10;17.27;;;11.07;;
23432;SDS011;41331;45.412;10.992;2022-11-11T00:35:55;17.55;;;10.52;;
23432;SDS011;41331;45.412;10.992;2022-11-11T00:38:41;17.30;;;11.75;;
23432;SDS011;41331;45.412;10.992;2022-11-11T00:41:30;17.38;;;10.95;;
23432;SDS011;41331;45.412;10.992;2022-11-11T00:44:16;16.42;;;11.02;;
23432;SDS011;41331;45.412;10.992;2022-11-11T00:47:02;17.42;;;11.40;;
23432;SDS011;41331;45.412;10.992;2022-11-11T00:50:10;16.95;;;10.65;;
23432;SDS011;41331;45.412;10.992;2022-11-11T00:53:20;16.92;;;10.55;;
23432;SDS011;41331;45.412;10.992;2022-11-11T00:56:12;16.88;;;11.05;;
23432;SDS011;41331;45.412;10.992;2022-11-11T00:58:58;15.65;;;10.80;;
23432;SDS011;41331;45.412;10.992;2022-11-11T01:01:44;16.33;;;10.63;;
23432;SDS011;41331;45.412;10.992;2022-11-11T01:04:31;16.42;;;10.93;;
23432;SDS011;41331;45.412;10.992;2022-11-11T01:07:17;17.85;;;11.00;;
23432;SDS011;41331;45.412;10.992;2022-11-11T01:10:03;19.60;;;11.90;;
23432;SDS011;41331;45.412;10.992;2022-11-11T01:12:52;22.73;;;12.52;;
23432;SDS011;41331;45.412;10.992;2022-11-11T01:16:06;19.80;;;12.70;;
23432;SDS011;41331;45.412;10.992;2022-11-11T01:18:55;20.90;;;12.52;;
23432;SDS011;41331;45.412;10.992;2022-11-11T01:21:44;21.27;;;11.27;;
23432;SDS011;41331;45.412;10.992;2022-11-11T01:24:30;16.85;;;11.57;;
23432;SDS011;41331;45.412;10.992;2022-11-11T01:27:16;15.27;;;9.68;;
23432;SDS011;41331;45.412;10.992;2022-11-11T01:30:02;15.57;;;9.40;;
23432;SDS011;41331;45.412;10.992;2022-11-11T01:32:48;13.05;;;9.02;;
23432;SDS011;41331;45.412;10.992;2022-11-11T01:35:38;14.35;;;9.30;;
23432;SDS011;41331;45.412;10.992;2022-11-11T01:38:25;13.65;;;9.30;;
23432;SDS011;41331;45.412;10.992;2022-11-11T01:41:13;15.85;;;9.60;;
23432;SDS011;41331;45.412;10.992;2022-11-11T01:47:26;14.77;;;8.88;;
23432;SDS011;41331;45.412;10.992;2022-11-11T01:50:53;15.18;;;9.07;;
23432;SDS011;41331;45.412;10.992;2022-11-11T01:53:41;15.43;;;9.50;;
23432;SDS011;41331;45.412;10.992;2022-11-11T01:56:28;16.23;;;9.23;;
23432;SDS011;41331;45.412;10.992;2022-11-11T01:59:14;17.83;;;8.93;;
23432;SDS011;41331;45.412;10.992;2022-11-11T02:02:04;13.10;;;8.90;;
23432;SDS011;41331;45.412;10.992;2022-11-11T02:04:57;18.42;;;9.18;;
23432;SDS011;41331;45.412;10.992;2022-11-11T02:08:06;14.07;;;8.93;;
23432;SDS011;41331;45.412;10.992;2022-11-11T02:10:55;13.25;;;8.65;;
23432;SDS011;41331;45.412;10.992;2022-11-11T02:13:41;12.07;;;8.27;;
23432;SDS011;41331;45.412;10.992;2022-11-11T02:16:50;15.80;;;8.27;;
23432;SDS011;41331;45.412;10.992;2022-11-11T02:19:39;14.77;;;8.70;;
23432;SDS011;41331;45.412;10.992;2022-11-11T02:22:56;13.13;;;8.18;;
23432;SDS011;41331;45.412;10.992;2022-11-11T02:25:48;12.30;;;7.82;;
23432;SDS011;41331;45.412;10.992;2022-11-11T02:28:37;12.32;;;7.82;;
23432;SDS011;41331;45.412;10.992;2022-11-11T02:31:30;11.65;;;7.18;;
23432;SDS011;41331;45.412;10.992;2022-11-11T02:34:17;11.43;;;7.72;;
23432;SDS011;41331;45.412;10.992;2022-11-11T02:37:04;10.75;;;7.53;;
23432;SDS011;41331;45.412;10.992;2022-11-11T02:39:53;11.70;;;7.15;;
23432;SDS011;41331;45.412;10.992;2022-11-11T02:42:50;10.13;;;7.03;;
23432;SDS011;41331;45.412;10.992;2022-11-11T02:45:36;13.43;;;7.50;;
23432;SDS011;41331;45.412;10.992;2022-11-11T02:48:23;11.77;;;6.88;;
23432;SDS011;41331;45.412;10.992;2022-11-11T02:51:09;11.38;;;6.82;;
23432;SDS011;41331;45.412;10.992;2022-11-11T02:53:55;10.10;;;6.88;;
23432;SDS011;41331;45.412;10.992;2022-11-11T02:56:43;8.60;;;5.82;;
23432;SDS011;41331;45.412;10.992;2022-11-11T02:59:47;9.05;;;6.28;;
23432;SDS011;41331;45.412;10.992;2022-11-11T03:02:33;10.18;;;6.93;;
23432;SDS011;41331;45.412;10.992;2022-11-11T03:05:20;10.88;;;6.63;;
23432;SDS011;41331;45.412;10.992;2022-11-11T03:08:07;8.57;;;5.50;;
23432;SDS011;41331;45.412;10.992;2022-11-11T03:10:53;11.52;;;6.97;;
23432;SDS011;41331;45.412;10.992;2022-11-11T03:13:39;10.77;;;6.88;;
23432;SDS011;41331;45.412;10.992;2022-11-11T03:16:25;9.60;;;6.82;;
23432;SDS011;41331;45.412;10.992;2022-11-11T03:19:31;9.52;;;6.60;;
23432;SDS011;41331;45.412;10.992;2022-11-11T03:22:18;8.93;;;6.30;;
23432;SDS011;41331;45.412;10.992;2022-11-11T03:25:24;11.30;;;6.10;;
23432;SDS011;41331;45.412;10.992;2022-11-11T03:28:25;9.80;;;6.30;;
23432;SDS011;41331;45.412;10.992;2022-11-11T03:31:11;11.40;;;6.25;;
23432;SDS011;41331;45.412;10.992;2022-11-11T03:33:57;9.80;;;6.57;;
23432;SDS011;41331;45.412;10.992;2022-11-11T03:37:03;10.07;;;6.65;;
23432;SDS011;41331;45.412;10.992;2022-11-11T03:40:09;9.30;;;6.03;;
23432;SDS011;41331;45.412;10.992;2022-11-11T03:42:56;9.73;;;5.97;;
23432;SDS011;41331;45.412;10.992;2022-11-11T03:45:48;8.82;;;5.85;;
23432;SDS011;41331;45.412;10.992;2022-11-11T03:48:35;8.80;;;6.05;;
23432;SDS011;41331;45.412;10.992;2022-11-11T03:51:21;8.93;;;5.50;;
23432;SDS011;41331;45.412;10.992;2022-11-11T03:54:07;8.10;;;5.47;;
23432;SDS011;41331;45.412;10.992;2022-11-11T03:56:53;8.45;;;5.43;;
23432;SDS011;41331;45.412;10.992;2022-11-11T03:59:59;8.18;;;5.07;;
23432;SDS011;41331;45.412;10.992;2022-11-11T04:02:45;7.68;;;4.80;;
23432;SDS011;41331;45.412;10.992;2022-11-11T04:05:50;8.10;;;5.03;;
23432;SDS011;41331;45.412;10.992;2022-11-11T04:09:06;8.18;;;4.95;;
23432;SDS011;41331;45.412;10.992;2022-11-11T04:12:11;9.40;;;4.82;;
23432;SDS011;41331;45.412;10.992;2022-11-11T04:14:57;7.55;;;4.80;;
23432;SDS011;41331;45.412;10.992;2022-11-11T04:18:01;7.95;;;4.95;;
23432;SDS011;41331;45.412;10.992;2022-11-11T04:20:52;5.80;;;4.22;;
23432;SDS011;41331;45.412;10.992;2022-11-11T04:23:56;7.45;;;4.85;;
23432;SDS011;41331;45.412;10.992;2022-11-11T04:26:42;7.03;;;4.65;;
23432;SDS011;41331;45.412;10.992;2022-11-11T04:29:28;9.60;;;5.10;;
23432;SDS011;41331;45.412;10.992;2022-11-11T04:32:15;9.63;;;5.45;;
23432;SDS011;41331;45.412;10.992;2022-11-11T04:35:22;7.88;;;4.85;;
23432;SDS011;41331;45.412;10.992;2022-11-11T04:38:11;7.05;;;4.80;;
23432;SDS011;41331;45.412;10.992;2022-11-11T04:41:18;8.38;;;5.13;;
23432;SDS011;41331;45.412;10.992;2022-11-11T04:44:04;7.57;;;4.93;;
23432;SDS011;41331;45.412;10.992;2022-11-11T04:47:11;8.95;;;4.70;;
23432;SDS011;41331;45.412;10.992;2022-11-11T04:49:57;6.75;;;4.40;;
23432;SDS011;41331;45.412;10.992;2022-11-11T04:52:50;7.43;;;4.43;;
23432;SDS011;41331;45.412;10.992;2022-11-11T04:55:36;7.82;;;4.85;;
23432;SDS011;41331;45.412;10.992;2022-11-11T04:58:41;7.55;;;4.63;;
23432;SDS011;41331;45.412;10.992;2022-11-11T05:01:27;6.15;;;4.20;;
23432;SDS011;41331;45.412;10.992;2022-11-11T05:04:31;6.93;;;4.65;;
23432;SDS011;41331;45.412;10.992;2022-11-11T05:07:17;8.95;;;4.70;;
23432;SDS011;41331;45.412;10.992;2022-11-11T05:10:21;8.05;;;4.40;;
23432;SDS011;41331;45.412;10.992;2022-11-11T05:13:08;8.05;;;4.65;;
23432;SDS011;41331;45.412;10.992;2022-11-11T05:16:21;5.97;;;3.95;;
23432;SDS011;41331;45.412;10.992;2022-11-11T05:19:30;6.85;;;4.18;;
23432;SDS011;41331;45.412;10.992;2022-11-11T05:22:35;6.57;;;4.60;;
23432;SDS011;41331;45.412;10.992;2022-11-11T05:25:23;8.48;;;4.32;;
23432;SDS011;41331;45.412;10.992;2022-11-11T05:28:15;12.85;;;4.97;;
23432;SDS011;41331;45.412;10.992;2022-11-11T05:31:01;6.93;;;4.45;;
23432;SDS011;41331;45.412;10.992;2022-11-11T05:33:47;6.90;;;4.38;;
23432;SDS011;41331;45.412;10.992;2022-11-11T05:36:32;6.82;;;4.10;;
23432;SDS011;41331;45.412;10.992;2022-11-11T05:39:19;7.50;;;4.10;;
23432;SDS011;41331;45.412;10.992;2022-11-11T05:42:04;9.05;;;4.53;;
23432;SDS011;41331;45.412;10.992;2022-11-11T05:44:51;7.38;;;4.15;;
23432;SDS011;41331;45.412;10.992;2022-11-11T05:47:37;6.35;;;4.40;;
23432;SDS011;41331;45.412;10.992;2022-11-11T05:50:23;6.18;;;4.32;;
23432;SDS011;41331;45.412;10.992;2022-11-11T05:53:14;7.82;;;4.75;;
23432;SDS011;41331;45.412;10.992;2022-11-11T05:56:00;7.57;;;4.97;;
23432;SDS011;41331;45.412;10.992;2022-11-11T05:58:46;8.00;;;5.05;;
23432;SDS011;41331;45.412;10.992;2022-11-11T06:01:35;9.60;;;5.28;;
23432;SDS011;41331;45.412;10.992;2022-11-11T06:04:23;8.70;;;5.25;;
23432;SDS011;41331;45.412;10.992;2022-11-11T06:07:29;8.15;;;5.00;;
23432;SDS011;41331;45.412;10.992;2022-11-11T06:10:16;7.30;;;4.50;;
23432;SDS011;41331;45.412;10.992;2022-11-11T06:13:17;6.63;;;4.30;;
23432;SDS011;41331;45.412;10.992;2022-11-11T06:16:03;9.45;;;4.93;;
23432;SDS011;41331;45.412;10.992;2022-11-11T06:18:50;8.77;;;5.15;;
23432;SDS011;41331;45.412;10.992;2022-11-11T06:21:36;11.93;;;5.13;;
23432;SDS011;41331;45.412;10.992;2022-11-11T06:24:45;9.25;;;5.18;;
23432;SDS011;41331;45.412;10.992;2022-11-11T06:27:53;12.52;;;5.28;;
23432;SDS011;41331;45.412;10.992;2022-11-11T06:30:39;7.95;;;5.35;;
23432;SDS011;41331;45.412;10.992;2022-11-11T06:33:36;10.10;;;5.45;;
23432;SDS011;41331;45.412;10.992;2022-11-11T06:36:22;11.20;;;5.07;;
23432;SDS011;41331;45.412;10.992;2022-11-11T06:39:08;9.98;;;4.75;;
23432;SDS011;41331;45.412;10.992;2022-11-11T06:41:54;12.30;;;5.03;;
23432;SDS011;41331;45.412;10.992;2022-11-11T06:44:40;10.00;;;5.03;;
23432;SDS011;41331;45.412;10.992;2022-11-11T06:47:26;9.45;;;4.95;;
23432;SDS011;41331;45.412;10.992;2022-11-11T06:50:12;8.85;;;5.07;;
23432;SDS011;41331;45.412;10.992;2022-11-11T06:53:09;9.10;;;4.80;;
23432;SDS011;41331;45.412;10.992;2022-11-11T06:55:56;8.18;;;5.30;;
23432;SDS011;41331;45.412;10.992;2022-11-11T06:58:42;11.95;;;5.57;;
23432;SDS011;41331;45.412;10.992;2022-11-11T07:01:29;7.20;;;4.60;;
23432;SDS011;41331;45.412;10.992;2022-11-11T07:04:17;7.53;;;4.30;;
23432;SDS011;41331;45.412;10.992;2022-11-11T07:07:03;7.25;;;4.32;;
23432;SDS011;41331;45.412;10.992;2022-11-11T07:09:48;7.43;;;3.70;;
23432;SDS011;41331;45.412;10.992;2022-11-11T07:12:34;8.45;;;4.13;;
23432;SDS011;41331;45.412;10.992;2022-11-11T07:15:20;8.18;;;3.40;;
23432;SDS011;41331;45.412;10.992;2022-11-11T07:18:06;7.88;;;3.35;;
23432;SDS011;41331;45.412;10.992;2022-11-11T07:20:52;7.18;;;3.60;;
23432;SDS011;41331;45.412;10.992;2022-11-11T07:23:38;6.50;;;3.90;;
23432;SDS011;41331;45.412;10.992;2022-11-11T07:26:24;7.30;;;3.50;;
23432;SDS011;41331;45.412;10.992;2022-11-11T07:29:11;6.07;;;3.50;;
23432;SDS011;41331;45.412;10.992;2022-11-11T07:31:58;4.70;;;3.00;;
23432;SDS011;41331;45.412;10.992;2022-11-11T07:34:44;6.03;;;2.78;;
23432;SDS011;41331;45.412;10.992;2022-11-11T07:37:30;6.10;;;3.08;;
23432;SDS011;41331;45.412;10.992;2022-11-11T07:40:17;5.03;;;3.05;;
23432;SDS011;41331;45.412;10.992;2022-11-11T07:43:04;6.43;;;3.30;;
23432;SDS011;41331;45.412;10.992;2022-11-11T07:45:50;6.07;;;3.50;;
23432;SDS011;41331;45.412;10.992;2022-11-11T07:48:36;4.88;;;3.10;;
23432;SDS011;41331;45.412;10.992;2022-11-11T07:51:22;6.72;;;3.50;;
23432;SDS011;41331;45.412;10.992;2022-11-11T07:54:08;6.22;;;3.70;;
23432;SDS011;41331;45.412;10.992;2022-11-11T07:56:57;5.45;;;4.00;;
23432;SDS011;41331;45.412;10.992;2022-11-11T08:00:03;7.85;;;3.50;;
23432;SDS011;41331;45.412;10.992;2022-11-11T08:02:49;8.55;;;4.20;;
23432;SDS011;41331;45.412;10.992;2022-11-11T08:05:39;8.50;;;5.10;;
23432;SDS011;41331;45.412;10.992;2022-11-11T08:08:28;9.68;;;5.40;;
23432;SDS011;41331;45.412;10.992;2022-11-11T08:11:14;10.15;;;5.72;;
23432;SDS011;41331;45.412;10.992;2022-11-11T08:14:01;13.73;;;5.70;;
23432;SDS011;41331;45.412;10.992;2022-11-11T08:16:47;8.80;;;4.78;;
23432;SDS011;41331;45.412;10.992;2022-11-11T08:19:33;8.82;;;5.32;;
23432;SDS011;41331;45.412;10.992;2022-11-11T08:22:19;11.13;;;6.53;;
23432;SDS011;41331;45.412;10.992;2022-11-11T08:25:06;11.70;;;6.57;;
23432;SDS011;41331;45.412;10.992;2022-11-11T08:27:58;8.98;;;5.80;;
23432;SDS011;41331;45.412;10.992;2022-11-11T08:30:45;13.13;;;6.10;;
23432;SDS011;41331;45.412;10.992;2022-11-11T08:33:35;9.82;;;5.97;;
23432;SDS011;41331;45.412;10.992;2022-11-11T08:36:21;10.90;;;6.60;;
23432;SDS011;41331;45.412;10.992;2022-11-11T08:39:11;11.63;;;6.30;;
23432;SDS011;41331;45.412;10.992;2022-11-11T08:41:56;11.48;;;7.20;;
23432;SDS011;41331;45.412;10.992;2022-11-11T08:44:42;13.43;;;6.70;;
23432;SDS011;41331;45.412;10.992;2022-11-11T08:47:29;16.77;;;6.97;;
23432;SDS011;41331;45.412;10.992;2022-11-11T08:50:15;14.10;;;7.55;;
23432;SDS011;41331;45.412;10.992;2022-11-11T08:53:01;10.77;;;7.07;;
23432;SDS011;41331;45.412;10.992;2022-11-11T08:55:46;12.45;;;6.78;;
23432;SDS011;41331;45.412;10.992;2022-11-11T08:58:33;12.15;;;6.68;;
23432;SDS011;41331;45.412;10.992;2022-11-11T09:01:19;11.32;;;6.13;;
23432;SDS011;41331;45.412;10.992;2022-11-11T09:04:05;12.88;;;7.05;;
23432;SDS011;41331;45.412;10.992;2022-11-11T09:07:11;9.32;;;6.15;;
23432;SDS011;41331;45.412;10.992;2022-11-11T09:09:58;10.32;;;5.93;;
23432;SDS011;41331;45.412;10.992;2022-11-11T09:12:44;10.70;;;6.40;;
23432;SDS011;41331;45.412;10.992;2022-11-11T09:15:48;12.80;;;6.97;;
23432;SDS011;41331;45.412;10.992;2022-11-11T09:18:34;10.27;;;6.60;;
23432;SDS011;41331;45.412;10.992;2022-11-11T09:21:20;10.88;;;6.75;;
23432;SDS011;41331;45.412;10.992;2022-11-11T09:24:06;9.48;;;6.82;;
23432;SDS011;41331;45.412;10.992;2022-11-11T09:26:52;12.35;;;7.20;;
23432;SDS011;41331;45.412;10.992;2022-11-11T09:29:37;11.27;;;7.10;;
23432;SDS011;41331;45.412;10.992;2022-11-11T09:32:23;11.73;;;7.50;;
23432;SDS011;41331;45.412;10.992;2022-11-11T09:35:13;10.43;;;7.00;;
23432;SDS011;41331;45.412;10.992;2022-11-11T09:37:59;9.75;;;6.53;;
23432;SDS011;41331;45.412;10.992;2022-11-11T09:47:51;10.73;;;6.90;;
23432;SDS011;41331;45.412;10.992;2022-11-11T09:50:50;11.23;;;6.95;;
23432;SDS011;41331;45.412;10.992;2022-11-11T09:53:41;10.75;;;6.97;;
23432;SDS011;41331;45.412;10.992;2022-11-11T09:56:31;12.63;;;7.43;;
23432;SDS011;41331;45.412;10.992;2022-11-11T09:59:20;11.75;;;8.20;;
23432;SDS011;41331;45.412;10.992;2022-11-11T10:02:29;16.30;;;10.27;;
23432;SDS011;41331;45.412;10.992;2022-11-11T10:05:32;10.85;;;5.93;;
23432;SDS011;41331;45.412;10.992;2022-11-11T10:11:21;8.02;;;5.65;;
23432;SDS011;41331;45.412;10.992;2022-11-11T10:14:12;6.95;;;5.30;;
23432;SDS011;41331;45.412;10.992;2022-11-11T10:20:42;8.43;;;4.47;;
23432;SDS011;41331;45.412;10.992;2022-11-11T10:23:39;7.10;;;5.13;;
23432;SDS011;41331;45.412;10.992;2022-11-11T10:26:28;8.02;;;5.50;;
23432;SDS011;41331;45.412;10.992;2022-11-11T10:29:18;7.35;;;4.85;;
23432;SDS011;41331;45.412;10.992;2022-11-11T10:32:19;9.77;;;5.82;;
23432;SDS011;41331;45.412;10.992;2022-11-11T10:41:02;9.10;;;5.80;;
23432;SDS011;41331;45.412;10.992;2022-11-11T10:43:55;8.93;;;6.20;;
23432;SDS011;41331;45.412;10.992;2022-11-11T10:46:43;9.73;;;6.78;;
23432;SDS011;41331;45.412;10.992;2022-11-11T10:49:42;14.90;;;6.72;;
23432;SDS011;41331;45.412;10.992;2022-11-11T10:52:43;11.30;;;7.03;;
23432;SDS011;41331;45.412;10.992;2022-11-11T10:55:37;9.43;;;6.85;;
23432;SDS011;41331;45.412;10.992;2022-11-11T10:58:36;13.18;;;7.80;;
23432;SDS011;41331;45.412;10.992;2022-11-11T11:01:36;10.30;;;8.07;;
23432;SDS011;41331;45.412;10.992;2022-11-11T11:04:35;10.25;;;7.78;;
23432;SDS011;41331;45.412;10.992;2022-11-11T11:07:35;14.35;;;8.30;;
23432;SDS011;41331;45.412;10.992;2022-11-11T11:10:31;10.27;;;8.25;;
23432;SDS011;41331;45.412;10.992;2022-11-11T11:16:33;10.60;;;8.25;;
23432;SDS011;41331;45.412;10.992;2022-11-11T11:19:23;11.95;;;8.27;;
23432;SDS011;41331;45.412;10.992;2022-11-11T11:22:11;11.95;;;7.65;;
23432;SDS011;41331;45.412;10.992;2022-11-11T11:25:07;12.88;;;8.88;;
23432;SDS011;41331;45.412;10.992;2022-11-11T11:28:09;12.23;;;8.73;;
23432;SDS011;41331;45.412;10.992;2022-11-11T11:30:57;12.80;;;8.70;;
23432;SDS011;41331;45.412;10.992;2022-11-11T11:36:38;10.18;;;7.75;;
23432;SDS011;41331;45.412;10.992;2022-11-11T11:39:31;13.38;;;8.77;;
23432;SDS011;41331;45.412;10.992;2022-11-11T11:42:25;15.05;;;9.45;;
23432;SDS011;41331;45.412;10.992;2022-11-11T12:00:24;9.98;;;7.93;;
23432;SDS011;41331;45.412;10.992;2022-11-11T12:06:25;12.13;;;7.90;;
23432;SDS011;41331;45.412;10.992;2022-11-11T12:15:39;10.18;;;7.88;;
23432;SDS011;41331;45.412;10.992;2022-11-11T12:25:11;10.65;;;8.13;;
23432;SDS011;41331;45.412;10.992;2022-11-11T12:28:13;13.13;;;8.00;;
23432;SDS011;41331;45.412;10.992;2022-11-11T12:36:57;10.27;;;7.87;;
23432;SDS011;41331;45.412;10.992;2022-11-11T12:52:44;12.55;;;8.52;;
23432;SDS011;41331;45.412;10.992;2022-11-11T12:56:07;10.80;;;7.55;;
23432;SDS011;41331;45.412;10.992;2022-11-11T13:02:01;12.77;;;8.38;;
23432;SDS011;41331;45.412;10.992;2022-11-11T13:08:02;13.23;;;9.00;;
23432;SDS011;41331;45.412;10.992;2022-11-11T13:11:21;11.65;;;8.25;;
23432;SDS011;41331;45.412;10.992;2022-11-11T13:14:30;13.02;;;8.20;;
23432;SDS011;41331;45.412;10.992;2022-11-11T13:17:18;10.35;;;8.23;;
23432;SDS011;41331;45.412;10.992;2022-11-11T13:20:52;11.60;;;8.55;;
23432;SDS011;41331;45.412;10.992;2022-11-11T13:23:16;12.57;;;9.60;;
23432;SDS011;41331;45.412;10.992;2022-11-11T13:26:03;12.38;;;8.90;;
23432;SDS011;41331;45.412;10.992;2022-11-11T13:32:21;11.75;;;8.02;;
23432;SDS011;41331;45.412;10.992;2022-11-11T13:35:23;11.82;;;8.80;;
23432;SDS011;41331;45.412;10.992;2022-11-11T13:38:28;14.73;;;9.45;;
23432;SDS011;41331;45.412;10.992;2022-11-11T13:41:31;14.85;;;11.07;;
23432;SDS011;41331;45.412;10.992;2022-11-11T13:44:21;15.23;;;11.50;;
23432;SDS011;41331;45.412;10.992;2022-11-11T13:47:37;19.23;;;13.02;;
23432;SDS011;41331;45.412;10.992;2022-11-11T13:50:30;18.67;;;13.70;;
23432;SDS011;41331;45.412;10.992;2022-11-11T13:53:31;20.20;;;14.82;;
23432;SDS011;41331;45.412;10.992;2022-11-11T13:59:15;24.30;;;15.85;;
23432;SDS011;41331;45.412;10.992;2022-11-11T14:07:54;23.88;;;18.00;;
23432;SDS011;41331;45.412;10.992;2022-11-11T14:13:39;26.75;;;17.40;;
23432;SDS011;41331;45.412;10.992;2022-11-11T14:22:41;28.35;;;19.63;;
23432;SDS011;41331;45.412;10.992;2022-11-11T14:25:25;33.40;;;19.90;;
23432;SDS011;41331;45.412;10.992;2022-11-11T14:34:09;27.10;;;18.95;;
23432;SDS011;41331;45.412;10.992;2022-11-11T14:37:25;29.17;;;18.52;;
23432;SDS011;41331;45.412;10.992;2022-11-11T14:40:22;27.55;;;19.05;;
23432;SDS011;41331;45.412;10.992;2022-11-11T14:46:23;33.47;;;19.98;;
23432;SDS011;41331;45.412;10.992;2022-11-11T14:49:09;29.65;;;18.83;;
23432;SDS011;41331;45.412;10.992;2022-11-11T14:51:58;26.98;;;18.05;;
23432;SDS011;41331;45.412;10.992;2022-11-11T14:57:48;31.83;;;18.42;;
23432;SDS011;41331;45.412;10.992;2022-11-11T15:00:52;30.90;;;19.65;;
23432;SDS011;41331;45.412;10.992;2022-11-11T15:04:03;31.05;;;18.75;;
23432;SDS011;41331;45.412;10.992;2022-11-11T15:06:51;29.23;;;19.52;;
23432;SDS011;41331;45.412;10.992;2022-11-11T15:10:41;34.42;;;19.50;;
23432;SDS011;41331;45.412;10.992;2022-11-11T15:26:24;33.13;;;20.98;;
23432;SDS011;41331;45.412;10.992;2022-11-11T15:29:24;31.08;;;19.60;;
23432;SDS011;41331;45.412;10.992;2022-11-11T15:38:22;32.40;;;19.48;;
23432;SDS011;41331;45.412;10.992;2022-11-11T15:41:27;32.08;;;19.25;;
23432;SDS011;41331;45.412;10.992;2022-11-11T15:47:10;30.17;;;20.00;;
23432;SDS011;41331;45.412;10.992;2022-11-11T15:49:59;29.67;;;18.60;;
23432;SDS011;41331;45.412;10.992;2022-11-11T15:52:45;28.83;;;18.80;;
23432;SDS011;41331;45.412;10.992;2022-11-11T15:55:33;29.05;;;18.13;;
23432;SDS011;41331;45.412;10.992;2022-11-11T15:58:29;34.13;;;20.35;;
23432;SDS011;41331;45.412;10.992;2022-11-11T16:01:16;29.38;;;19.17;;
23432;SDS011;41331;45.412;10.992;2022-11-11T16:04:07;30.85;;;19.55;;
23432;SDS011;41331;45.412;10.992;2022-11-11T16:07:20;33.90;;;19.63;;
23432;SDS011;41331;45.412;10.992;2022-11-11T16:10:13;29.90;;;19.00;;
23432;SDS011;41331;45.412;10.992;2022-11-11T16:19:00;33.60;;;21.63;;
23432;SDS011;41331;45.412;10.992;2022-11-11T16:22:05;33.63;;;22.02;;
23432;SDS011;41331;45.412;10.992;2022-11-11T16:25:00;34.90;;;22.85;;
23432;SDS011;41331;45.412;10.992;2022-11-11T16:27:49;36.28;;;23.00;;
23432;SDS011;41331;45.412;10.992;2022-11-11T16:30:37;34.63;;;23.15;;
23432;SDS011;41331;45.412;10.992;2022-11-11T16:36:13;38.50;;;23.70;;
23432;SDS011;41331;45.412;10.992;2022-11-11T16:39:20;39.53;;;24.77;;
23432;SDS011;41331;45.412;10.992;2022-11-11T16:45:17;35.92;;;23.23;;
23432;SDS011;41331;45.412;10.992;2022-11-11T16:48:06;36.33;;;22.92;;
23432;SDS011;41331;45.412;10.992;2022-11-11T16:51:23;37.65;;;24.25;;
23432;SDS011;41331;45.412;10.992;2022-11-11T16:54:26;40.72;;;25.95;;
23432;SDS011;41331;45.412;10.992;2022-11-11T16:57:18;39.60;;;24.58;;
23432;SDS011;41331;45.412;10.992;2022-11-11T17:00:19;41.25;;;25.58;;
23432;SDS011;41331;45.412;10.992;2022-11-11T17:06:05;38.60;;;25.42;;
23432;SDS011;41331;45.412;10.992;2022-11-11T17:08:53;40.15;;;26.48;;
23432;SDS011;41331;45.412;10.992;2022-11-11T17:14:25;39.72;;;25.60;;
23432;SDS011;41331;45.412;10.992;2022-11-11T17:17:13;41.97;;;27.23;;
23432;SDS011;41331;45.412;10.992;2022-11-11T17:20:00;43.30;;;27.60;;
23432;SDS011;41331;45.412;10.992;2022-11-11T17:22:54;42.75;;;27.08;;
23432;SDS011;41331;45.412;10.992;2022-11-11T17:25:42;38.25;;;25.17;;
23432;SDS011;41331;45.412;10.992;2022-11-11T17:28:31;42.08;;;26.73;;
23432;SDS011;41331;45.412;10.992;2022-11-11T17:31:19;45.42;;;26.77;;
23432;SDS011;41331;45.412;10.992;2022-11-11T17:34:07;44.90;;;26.88;;
23432;SDS011;41331;45.412;10.992;2022-11-11T17:36:54;41.97;;;26.98;;
23432;SDS011;41331;45.412;10.992;2022-11-11T17:39:40;40.85;;;27.38;;
23432;SDS011;41331;45.412;10.992;2022-11-11T17:42:33;44.10;;;27.08;;
23432;SDS011;41331;45.412;10.992;2022-11-11T17:45:19;43.25;;;26.35;;
23432;SDS011;41331;45.412;10.992;2022-11-11T17:48:05;42.20;;;27.23;;
23432;SDS011;41331;45.412;10.992;2022-11-11T17:50:52;39.33;;;25.98;;
23432;SDS011;41331;45.412;10.992;2022-11-11T17:53:38;41.67;;;26.52;;
23432;SDS011;41331;45.412;10.992;2022-11-11T17:56:24;41.75;;;24.60;;
23432;SDS011;41331;45.412;10.992;2022-11-11T17:59:11;36.83;;;22.13;;
23432;SDS011;41331;45.412;10.992;2022-11-11T18:01:57;31.00;;;20.33;;
23432;SDS011;41331;45.412;10.992;2022-11-11T18:04:44;39.22;;;23.13;;
23432;SDS011;41331;45.412;10.992;2022-11-11T18:07:30;31.33;;;20.45;;
23432;SDS011;41331;45.412;10.992;2022-11-11T18:10:16;28.27;;;18.85;;
23432;SDS011;41331;45.412;10.992;2022-11-11T18:13:02;33.25;;;16.52;;
23432;SDS011;41331;45.412;10.992;2022-11-11T18:15:48;27.85;;;16.98;;
23432;SDS011;41331;45.412;10.992;2022-11-11T18:18:34;30.30;;;18.38;;
23432;SDS011;41331;45.412;10.992;2022-11-11T18:21:21;28.05;;;17.42;;
23432;SDS011;41331;45.412;10.992;2022-11-11T18:24:10;28.08;;;16.95;;
23432;SDS011;41331;45.412;10.992;2022-11-11T18:26:56;28.23;;;17.55;;
23432;SDS011;41331;45.412;10.992;2022-11-11T18:29:42;34.30;;;17.83;;
23432;SDS011;41331;45.412;10.992;2022-11-11T18:32:28;27.40;;;18.10;;
23432;SDS011;41331;45.412;10.992;2022-11-11T18:35:14;29.13;;;16.42;;
23432;SDS011;41331;45.412;10.992;2022-11-11T18:38:02;34.40;;;17.35;;
23432;SDS011;41331;45.412;10.992;2022-11-11T18:40:48;31.90;;;17.92;;
23432;SDS011;41331;45.412;10.992;2022-11-11T18:43:34;31.73;;;17.10;;
23432;SDS011;41331;45.412;10.992;2022-11-11T18:46:26;30.38;;;17.52;;
23432;SDS011;41331;45.412;10.992;2022-11-11T18:49:15;26.83;;;18.02;;
23432;SDS011;41331;45.412;10.992;2022-11-11T18:52:02;29.75;;;18.38;;
23432;SDS011;41331;45.412;10.992;2022-11-11T18:54:48;32.05;;;18.50;;
23432;SDS011;41331;45.412;10.992;2022-11-11T18:57:35;29.05;;;18.33;;
23432;SDS011;41331;45.412;10.992;2022-11-11T19:00:21;33.53;;;19.42;;
23432;SDS011;41331;45.412;10.992;2022-11-11T19:03:07;28.52;;;18.60;;
23432;SDS011;41331;45.412;10.992;2022-11-11T19:05:57;32.15;;;17.77;;
23432;SDS011;41331;45.412;10.992;2022-11-11T19:08:44;31.55;;;18.38;;
23432;SDS011;41331;45.412;10.992;2022-11-11T19:11:30;32.20;;;18.13;;
23432;SDS011;41331;45.412;10.992;2022-11-11T19:14:18;30.17;;;18.48;;
23432;SDS011;41331;45.412;10.992;2022-11-11T19:17:07;34.20;;;19.25;;
23432;SDS011;41331;45.412;10.992;2022-11-11T19:19:54;31.60;;;18.38;;
23432;SDS011;41331;45.412;10.992;2022-11-11T19:22:40;28.95;;;18.10;;